createdAt,value
2024-02-11T00:00:28.114Z,0.30
2024-02-11T00:01:28.075Z,0.30
2024-02-11T00:02:28.089Z,0.30
2024-02-11T00:03:28.084Z,0.30
2024-02-11T00:04:28.055Z,0.30
2024-02-11T00:05:28.043Z,0.30
2024-02-11T00:06:28.162Z,0.30
2024-02-11T00:07:28.008Z,0.30
2024-02-11T00:08:28.037Z,0.40
2024-02-11T00:09:27.997Z,0.40
2024-02-11T00:10:27.975Z,0.30
2024-02-11T00:11:27.967Z,0.30
2024-02-11T00:12:27.988Z,0.20
2024-02-11T00:13:27.940Z,0.40
2024-02-11T00:14:27.934Z,0.30
2024-02-11T00:15:27.924Z,0.20
2024-02-11T00:16:27.919Z,0.30
2024-02-11T00:17:27.945Z,0.30
2024-02-11T00:18:27.916Z,0.20
2024-02-11T00:19:27.922Z,0.30
2024-02-11T00:20:27.918Z,0.20
2024-02-11T00:21:27.873Z,0.30
2024-02-11T00:22:27.852Z,0.30
2024-02-11T00:23:27.843Z,0.30
2024-02-11T00:24:27.845Z,0.20
2024-02-11T00:25:27.810Z,0.20
2024-02-11T00:26:27.802Z,0.30
2024-02-11T00:27:27.836Z,0.20
2024-02-11T00:28:27.793Z,0.30
2024-02-11T00:29:27.796Z,0.30
2024-02-11T00:30:27.804Z,0.20
2024-02-11T00:31:27.749Z,0.30
2024-02-11T00:32:27.755Z,0.20
2024-02-11T00:33:27.787Z,0.30
2024-02-11T00:34:27.769Z,0.20
2024-02-11T00:35:27.702Z,0.20
2024-02-11T00:36:27.711Z,0.30
2024-02-11T00:37:27.681Z,0.20
2024-02-11T00:38:27.691Z,0.30
2024-02-11T00:39:27.655Z,0.20
2024-02-11T00:40:27.661Z,0.20
2024-02-11T00:41:27.638Z,0.30
2024-02-11T00:42:27.654Z,0.20
2024-02-11T00:43:27.656Z,0.30
2024-02-11T00:44:27.610Z,0.30
2024-02-11T00:45:27.629Z,0.40
2024-02-11T00:46:27.594Z,0.30
2024-02-11T00:47:27.672Z,0.30
2024-02-11T00:48:27.681Z,0.30
2024-02-11T00:49:27.549Z,0.20
2024-02-11T00:50:27.579Z,0.30
2024-02-11T00:51:27.534Z,0.20
2024-02-11T00:52:27.519Z,0.30
2024-02-11T00:53:27.952Z,0.40
2024-02-11T00:54:27.520Z,0.30
2024-02-11T00:55:27.491Z,0.20
2024-02-11T00:56:27.487Z,0.30
2024-02-11T00:57:27.463Z,0.20
2024-02-11T00:58:27.462Z,0.20
2024-02-11T00:59:27.457Z,0.30
2024-02-11T01:00:27.501Z,0.20
2024-02-11T01:01:27.507Z,0.30
2024-02-11T01:02:27.410Z,0.20
2024-02-11T01:03:27.407Z,0.30
2024-02-11T01:04:27.478Z,0.30
2024-02-11T01:05:27.517Z,0.20
2024-02-11T01:06:27.462Z,0.30
2024-02-11T01:07:29.461Z,0.20
2024-02-11T01:08:27.603Z,0.20
2024-02-11T01:09:27.333Z,0.30
2024-02-11T01:10:27.349Z,0.20
2024-02-11T01:11:27.376Z,0.20
2024-02-11T01:12:27.347Z,0.20
2024-02-11T01:13:27.352Z,0.20
2024-02-11T01:14:27.387Z,0.20
2024-02-11T01:15:27.278Z,0.30
2024-02-11T01:16:27.290Z,0.20
2024-02-11T01:17:27.341Z,0.20
2024-02-11T01:18:27.284Z,0.20
2024-02-11T01:19:27.246Z,0.30
2024-02-11T01:20:27.317Z,0.30
2024-02-11T01:21:27.211Z,0.20
2024-02-11T01:22:27.267Z,0.30
2024-02-11T01:23:27.179Z,0.30
2024-02-11T01:24:27.184Z,0.20
2024-02-11T01:25:27.155Z,0.20
2024-02-11T01:26:27.293Z,0.20
2024-02-11T01:27:27.141Z,0.20
2024-02-11T01:28:27.125Z,0.10
2024-02-11T01:29:27.129Z,0.20
2024-02-11T01:30:27.129Z,0.20
2024-02-11T01:31:27.094Z,0.30
2024-02-11T01:32:27.145Z,0.20
2024-02-11T01:33:27.153Z,0.20
2024-02-11T01:34:27.164Z,0.30
2024-02-11T01:35:27.187Z,0.30
2024-02-11T01:36:27.069Z,0.20
2024-02-11T01:37:27.036Z,0.20
2024-02-11T01:38:27.064Z,0.30
2024-02-11T01:39:27.019Z,0.20
2024-02-11T01:40:26.993Z,0.30
2024-02-11T01:41:26.989Z,0.30
2024-02-11T01:42:27.017Z,0.20
2024-02-11T01:43:27.020Z,0.30
2024-02-11T01:44:26.962Z,0.20
2024-02-11T01:45:26.947Z,0.30
2024-02-11T01:46:26.926Z,0.20
2024-02-11T01:47:26.937Z,0.20
2024-02-11T01:48:26.967Z,0.30
2024-02-11T01:49:26.901Z,0.20
2024-02-11T01:50:26.904Z,0.20
2024-02-11T01:51:26.883Z,0.20
2024-02-11T01:52:26.865Z,0.20
2024-02-11T01:53:26.851Z,0.20
2024-02-11T01:54:26.879Z,0.30
2024-02-11T01:55:26.848Z,0.40
2024-02-11T01:56:26.821Z,0.20
2024-02-11T01:57:26.810Z,0.30
2024-02-11T01:58:26.805Z,0.30
2024-02-11T01:59:26.790Z,0.30
2024-02-11T02:00:26.828Z,0.30
2024-02-11T02:01:26.856Z,0.20
2024-02-11T02:02:26.756Z,0.40
2024-02-11T02:03:26.773Z,0.30
2024-02-11T02:04:26.763Z,0.30
2024-02-11T02:05:26.878Z,0.40
2024-02-11T02:06:26.848Z,0.30
2024-02-11T02:07:26.703Z,0.30
2024-02-11T02:08:26.698Z,0.40
2024-02-11T02:09:26.685Z,0.40
2024-02-11T02:10:26.705Z,0.40
2024-02-11T02:11:26.689Z,0.30
2024-02-11T02:12:26.671Z,0.30
2024-02-11T02:13:26.646Z,0.30
2024-02-11T02:14:26.633Z,0.30
2024-02-11T02:15:26.627Z,0.30
2024-02-11T02:16:26.612Z,0.20
2024-02-11T02:17:26.666Z,0.30
2024-02-11T02:18:26.689Z,0.30
2024-02-11T02:19:26.572Z,0.30
2024-02-11T02:20:26.575Z,0.30
2024-02-11T02:21:26.563Z,0.30
2024-02-11T02:22:26.535Z,0.30
2024-02-11T02:23:26.539Z,0.30
2024-02-11T02:24:26.541Z,0.20
2024-02-11T02:25:26.505Z,0.30
2024-02-11T02:26:26.514Z,0.30
2024-02-11T02:27:26.508Z,0.30
2024-02-11T02:28:26.470Z,1.00
2024-02-11T02:29:26.461Z,10.00
2024-02-11T02:30:26.492Z,3.80
2024-02-11T02:31:26.441Z,0.50
2024-02-11T02:32:26.430Z,0.80
2024-02-11T02:33:26.579Z,0.60
2024-02-11T02:34:26.428Z,0.60
2024-02-11T02:35:26.438Z,0.60
2024-02-11T02:36:26.406Z,1.10
2024-02-11T02:37:26.378Z,0.50
2024-02-11T02:38:26.433Z,1.10
2024-02-11T02:39:26.382Z,0.80
2024-02-11T02:40:26.339Z,0.40
2024-02-11T02:41:26.333Z,0.50
2024-02-11T02:42:26.373Z,0.50
2024-02-11T02:43:26.308Z,0.50
2024-02-11T02:44:26.298Z,0.60
2024-02-11T02:45:26.290Z,0.40
2024-02-11T02:46:26.275Z,0.50
2024-02-11T02:47:26.337Z,0.50
2024-02-11T02:48:26.325Z,0.50
2024-02-11T02:49:26.251Z,0.50
2024-02-11T02:50:26.278Z,0.50
2024-02-11T02:51:26.220Z,0.50
2024-02-11T02:52:26.211Z,0.50
2024-02-11T02:53:26.204Z,0.60
2024-02-11T02:54:26.200Z,0.60
2024-02-11T02:55:26.197Z,1.50
2024-02-11T02:56:26.164Z,2.90
2024-02-11T02:57:26.159Z,4.00
2024-02-11T02:58:26.163Z,9.10
2024-02-11T02:59:26.184Z,6.00
2024-02-11T03:00:26.157Z,28.40
2024-02-11T03:01:26.107Z,38.90
2024-02-11T03:02:26.100Z,29.50
2024-02-11T03:03:26.118Z,25.70
2024-02-11T03:04:28.068Z,28.40
2024-02-11T03:05:26.171Z,16.70
2024-02-11T03:06:26.100Z,7.30
2024-02-11T03:07:26.064Z,0.80
2024-02-11T03:08:26.072Z,2.70
2024-02-11T03:09:26.369Z,15.00
2024-02-11T03:10:26.022Z,16.50
2024-02-11T03:11:26.028Z,18.90
2024-02-11T03:12:25.992Z,10.70
2024-02-11T03:13:25.982Z,8.20
2024-02-11T03:14:26.001Z,0.50
2024-02-11T03:15:25.970Z,1.80
2024-02-11T03:16:25.946Z,1.10
2024-02-11T03:17:25.983Z,4.90
2024-02-11T03:18:25.949Z,2.20
2024-02-11T03:19:25.921Z,0.60
2024-02-11T03:20:25.917Z,0.40
2024-02-11T03:21:25.903Z,0.30
2024-02-11T03:22:25.877Z,0.30
2024-02-11T03:23:25.898Z,0.40
2024-02-11T03:24:25.856Z,0.40
2024-02-11T03:25:25.848Z,0.20
2024-02-11T03:26:25.868Z,0.40
2024-02-11T03:27:25.829Z,0.30
2024-02-11T03:28:25.817Z,0.50
2024-02-11T03:29:25.842Z,0.30
2024-02-11T03:30:25.828Z,0.30
2024-02-11T03:31:25.798Z,0.30
2024-02-11T03:32:25.779Z,0.30
2024-02-11T03:33:25.877Z,0.40
2024-02-11T03:34:25.751Z,0.30
2024-02-11T03:35:25.837Z,0.30
2024-02-11T03:36:25.754Z,0.40
2024-02-11T03:37:25.720Z,0.40
2024-02-11T03:38:25.781Z,0.30
2024-02-11T03:39:25.707Z,0.40
2024-02-11T03:40:25.691Z,0.30
2024-02-11T03:41:25.692Z,0.30
2024-02-11T03:42:25.665Z,0.30
2024-02-11T03:43:25.660Z,0.40
2024-02-11T03:44:25.719Z,0.50
2024-02-11T03:45:25.635Z,0.40
2024-02-11T03:46:25.643Z,0.30
2024-02-11T03:47:25.735Z,0.40
2024-02-11T03:48:25.671Z,0.40
2024-02-11T03:49:25.605Z,0.40
2024-02-11T03:50:25.617Z,0.50
2024-02-11T03:51:25.565Z,0.40
2024-02-11T03:52:25.553Z,0.40
2024-02-11T03:53:25.634Z,0.40
2024-02-11T03:54:25.558Z,0.40
2024-02-11T03:55:25.526Z,0.40
2024-02-11T03:56:25.558Z,0.40
2024-02-11T03:57:25.499Z,0.30
2024-02-11T03:58:25.499Z,0.30
2024-02-11T03:59:25.502Z,0.40
2024-02-11T04:00:25.485Z,0.40
2024-02-11T04:01:25.568Z,0.40
2024-02-11T04:02:25.466Z,0.40
2024-02-11T04:03:25.484Z,0.50
2024-02-11T04:04:25.440Z,0.50
2024-02-11T04:05:25.556Z,0.40
2024-02-11T04:06:25.453Z,0.30
2024-02-11T04:07:25.397Z,0.30
2024-02-11T04:08:25.458Z,0.40
2024-02-11T04:09:25.393Z,0.30
2024-02-11T04:10:25.373Z,0.30
2024-02-11T04:11:25.427Z,0.30
2024-02-11T04:12:25.354Z,0.40
2024-02-11T04:13:25.535Z,0.30
2024-02-11T04:14:25.360Z,0.40
2024-02-11T04:15:25.314Z,0.40
2024-02-11T04:16:25.296Z,0.40
2024-02-11T04:17:25.301Z,0.40
2024-02-11T04:18:25.397Z,0.40
2024-02-11T04:19:25.284Z,0.40
2024-02-11T04:20:25.865Z,0.40
2024-02-11T04:21:25.252Z,0.40
2024-02-11T04:22:25.253Z,0.30
2024-02-11T04:23:25.295Z,0.40
2024-02-11T04:24:25.222Z,0.40
2024-02-11T04:25:25.213Z,0.60
2024-02-11T04:26:25.260Z,0.40
2024-02-11T04:27:25.176Z,0.50
2024-02-11T04:28:25.170Z,0.40
2024-02-11T04:29:25.225Z,0.30
2024-02-11T04:30:25.145Z,0.40
2024-02-11T04:31:25.146Z,0.40
2024-02-11T04:32:25.126Z,0.30
2024-02-11T04:33:25.169Z,0.30
2024-02-11T04:34:25.200Z,0.30
2024-02-11T04:35:25.200Z,0.40
2024-02-11T04:36:25.088Z,0.70
2024-02-11T04:37:25.077Z,0.60
2024-02-11T04:38:25.103Z,0.70
2024-02-11T04:39:25.044Z,3.60
2024-02-11T04:40:25.032Z,2.40
2024-02-11T04:41:25.128Z,1.30
2024-02-11T04:42:25.010Z,0.60
2024-02-11T04:43:25.002Z,0.40
2024-02-11T04:44:25.006Z,0.30
2024-02-11T04:45:24.984Z,0.40
2024-02-11T04:46:24.965Z,0.60
2024-02-11T04:47:25.096Z,4.90
2024-02-11T04:48:25.094Z,0.80
2024-02-11T04:49:24.933Z,1.90
2024-02-11T04:50:24.989Z,1.90
2024-02-11T04:51:24.918Z,0.50
2024-02-11T04:52:27.596Z,0.80
2024-02-11T04:53:24.957Z,0.80
2024-02-11T04:54:24.880Z,0.80
2024-02-11T04:55:24.870Z,1.90
2024-02-11T04:56:25.012Z,0.90
2024-02-11T04:57:24.855Z,0.80
2024-02-11T04:58:24.846Z,0.80
2024-02-11T04:59:24.904Z,0.60
2024-02-11T05:00:24.824Z,1.80
2024-02-11T05:01:24.848Z,0.60
2024-02-11T05:02:24.817Z,0.60
2024-02-11T05:03:24.836Z,0.70
2024-02-11T05:04:24.810Z,2.00
2024-02-11T05:05:24.899Z,1.20
2024-02-11T05:06:24.915Z,0.90
2024-02-11T05:07:24.744Z,1.20
2024-02-11T05:08:26.077Z,0.60
2024-02-11T05:09:24.728Z,0.60
2024-02-11T05:10:24.736Z,0.50
2024-02-11T05:11:24.912Z,0.50
2024-02-11T05:12:24.684Z,0.60
2024-02-11T05:13:25.289Z,0.70
2024-02-11T05:14:24.737Z,0.60
2024-02-11T05:15:24.652Z,0.60
2024-02-11T05:16:24.643Z,0.60
2024-02-11T05:17:24.710Z,0.50
2024-02-11T05:18:24.755Z,0.60
2024-02-11T05:19:24.618Z,0.50
2024-02-11T05:20:24.786Z,0.60
2024-02-11T05:21:24.588Z,0.70
2024-02-11T05:22:24.630Z,0.60
2024-02-11T05:23:24.623Z,0.60
2024-02-11T05:24:24.563Z,0.70
2024-02-11T05:25:24.560Z,0.90
2024-02-11T05:26:24.637Z,0.80
2024-02-11T05:27:24.525Z,0.70
2024-02-11T05:28:24.510Z,0.70
2024-02-11T05:29:24.586Z,0.70
2024-02-11T05:30:24.507Z,0.60
2024-02-11T05:31:24.482Z,0.70
2024-02-11T05:32:24.537Z,0.60
2024-02-11T05:33:24.559Z,0.70
2024-02-11T05:34:24.447Z,0.70
2024-02-11T05:35:24.494Z,0.60
2024-02-11T05:36:24.452Z,0.50
2024-02-11T05:37:24.416Z,0.60
2024-02-11T05:38:24.556Z,0.60
2024-02-11T05:39:24.395Z,0.60
2024-02-11T05:40:24.383Z,0.60
2024-02-11T05:41:24.566Z,0.60
2024-02-11T05:42:24.374Z,0.60
2024-02-11T05:43:24.352Z,0.70
2024-02-11T05:44:24.386Z,0.70
2024-02-11T05:45:24.333Z,0.70
2024-02-11T05:46:24.352Z,0.90
2024-02-11T05:47:24.404Z,1.00
2024-02-11T05:48:24.774Z,0.80
2024-02-11T05:49:24.348Z,0.80
2024-02-11T05:50:24.482Z,0.90
2024-02-11T05:51:24.265Z,0.60
2024-02-11T05:52:24.253Z,0.50
2024-02-11T05:53:24.416Z,0.70
2024-02-11T05:54:24.254Z,0.70
2024-02-11T05:55:24.222Z,0.70
2024-02-11T05:56:24.291Z,0.70
2024-02-11T05:57:24.202Z,0.60
2024-02-11T05:58:24.186Z,0.60
2024-02-11T05:59:24.252Z,0.70
2024-02-11T06:00:24.170Z,0.70
2024-02-11T06:01:24.234Z,0.90
2024-02-11T06:02:24.176Z,0.70
2024-02-11T06:03:24.155Z,0.70
2024-02-11T06:04:24.164Z,0.80
2024-02-11T06:05:24.233Z,0.60
2024-02-11T06:06:24.110Z,0.80
2024-02-11T06:07:24.213Z,0.70
2024-02-11T06:08:24.221Z,0.70
2024-02-11T06:09:24.076Z,0.70
2024-02-11T06:10:24.111Z,0.80
2024-02-11T06:11:24.139Z,0.70
2024-02-11T06:12:24.040Z,3.50
2024-02-11T06:13:24.031Z,11.10
2024-02-11T06:14:24.056Z,11.70
2024-02-11T06:15:24.006Z,4.90
2024-02-11T06:16:24.006Z,8.00
2024-02-11T06:17:24.084Z,5.90
2024-02-11T06:18:23.981Z,1.30
2024-02-11T06:19:23.990Z,1.10
2024-02-11T06:20:23.974Z,0.90
2024-02-11T06:21:23.952Z,0.80
2024-02-11T06:22:23.942Z,0.70
2024-02-11T06:23:24.048Z,0.80
2024-02-11T06:24:23.910Z,1.20
2024-02-11T06:25:24.253Z,0.90
2024-02-11T06:26:24.108Z,1.10
2024-02-11T06:27:23.894Z,0.80
2024-02-11T06:28:23.884Z,1.00
2024-02-11T06:29:23.911Z,1.50
2024-02-11T06:30:23.855Z,3.10
2024-02-11T06:31:23.836Z,3.40
2024-02-11T06:32:23.982Z,10.10
2024-02-11T06:33:23.899Z,6.10
2024-02-11T06:34:26.620Z,9.70
2024-02-11T06:35:23.835Z,5.90
2024-02-11T06:36:23.778Z,4.20
2024-02-11T06:37:23.775Z,1.60
2024-02-11T06:38:23.828Z,1.10
2024-02-11T06:39:23.762Z,6.00
2024-02-11T06:40:24.023Z,7.00
2024-02-11T06:41:23.774Z,3.80
2024-02-11T06:42:23.737Z,8.80
2024-02-11T06:43:23.700Z,6.10
2024-02-11T06:44:23.771Z,4.60
2024-02-11T06:45:24.424Z,7.60
2024-02-11T06:46:23.667Z,7.70
2024-02-11T06:47:23.974Z,8.40
2024-02-11T06:48:23.717Z,9.60
2024-02-11T06:49:23.641Z,10.30
2024-02-11T06:50:23.646Z,7.80
2024-02-11T06:51:23.617Z,12.90
2024-02-11T06:52:23.614Z,13.20
2024-02-11T06:53:23.681Z,7.10
2024-02-11T06:54:23.687Z,6.10
2024-02-11T06:55:23.567Z,8.60
2024-02-11T06:56:23.588Z,8.40
2024-02-11T06:57:23.549Z,10.30
2024-02-11T06:58:23.552Z,9.00
2024-02-11T06:59:23.606Z,9.40
2024-02-11T07:00:23.529Z,8.00
2024-02-11T07:01:23.532Z,8.50
2024-02-11T07:02:25.351Z,6.20
2024-02-11T07:03:23.523Z,6.70
2024-02-11T07:04:23.471Z,7.10
2024-02-11T07:05:24.114Z,7.50
2024-02-11T07:06:23.517Z,8.50
2024-02-11T07:07:23.445Z,7.30
2024-02-11T07:08:23.479Z,4.70
2024-02-11T07:09:23.413Z,6.90
2024-02-11T07:10:23.426Z,7.90
2024-02-11T07:11:23.442Z,8.60
2024-02-11T07:12:23.391Z,9.80
2024-02-11T07:13:23.409Z,7.80
2024-02-11T07:14:23.433Z,7.10
2024-02-11T07:15:23.359Z,6.30
2024-02-11T07:16:23.353Z,6.50
2024-02-11T07:17:23.432Z,6.30
2024-02-11T07:18:23.432Z,8.40
2024-02-11T07:19:23.327Z,7.90
2024-02-11T07:20:23.414Z,7.20
2024-02-11T07:21:23.413Z,5.60
2024-02-11T07:22:23.279Z,7.50
2024-02-11T07:23:23.378Z,9.80
2024-02-11T07:24:23.247Z,8.30
2024-02-11T07:25:23.249Z,6.70
2024-02-11T07:26:23.370Z,7.10
2024-02-11T07:27:23.214Z,5.40
2024-02-11T07:28:23.214Z,4.90
2024-02-11T07:29:23.265Z,4.90
2024-02-11T07:30:23.207Z,4.90
2024-02-11T07:31:23.177Z,1.70
2024-02-11T07:32:23.440Z,1.80
2024-02-11T07:33:23.214Z,1.30
2024-02-11T07:34:23.231Z,1.40
2024-02-11T07:35:23.229Z,1.50
2024-02-11T07:36:23.117Z,1.30
2024-02-11T07:37:23.104Z,1.30
2024-02-11T07:38:23.187Z,0.70
2024-02-11T07:39:23.095Z,0.80
2024-02-11T07:40:23.071Z,1.20
2024-02-11T07:41:23.136Z,0.90
2024-02-11T07:42:25.672Z,0.90
2024-02-11T07:43:23.036Z,0.90
2024-02-11T07:44:23.133Z,0.80
2024-02-11T07:45:23.066Z,0.80
2024-02-11T07:46:23.029Z,0.70
2024-02-11T07:47:23.129Z,0.70
2024-02-11T07:48:23.116Z,0.90
2024-02-11T07:49:22.994Z,0.80
2024-02-11T07:50:23.083Z,1.70
2024-02-11T07:51:22.953Z,1.20
2024-02-11T07:52:22.957Z,1.50
2024-02-11T07:53:23.120Z,6.80
2024-02-11T07:54:22.916Z,10.60
2024-02-11T07:55:22.957Z,10.30
2024-02-11T07:56:22.931Z,6.50
2024-02-11T07:57:22.892Z,5.70
2024-02-11T07:58:22.872Z,4.30
2024-02-11T07:59:23.067Z,3.00
2024-02-11T08:00:22.901Z,3.30
2024-02-11T08:01:22.923Z,1.90
2024-02-11T08:02:22.981Z,3.90
2024-02-11T08:03:24.728Z,7.30
2024-02-11T08:04:22.906Z,5.30
2024-02-11T08:05:23.785Z,11.50
2024-02-11T08:06:22.833Z,12.90
2024-02-11T08:07:22.778Z,9.60
2024-02-11T08:08:23.006Z,11.50
2024-02-11T08:09:22.765Z,9.30
2024-02-11T08:10:22.813Z,12.60
2024-02-11T08:11:22.789Z,11.10
2024-02-11T08:12:22.725Z,3.90
2024-02-11T08:13:22.715Z,1.90
2024-02-11T08:14:22.785Z,2.10
2024-02-11T08:15:22.717Z,1.20
2024-02-11T08:16:22.688Z,1.40
2024-02-11T08:17:22.896Z,7.50
2024-02-11T08:18:22.743Z,10.80
2024-02-11T08:19:22.736Z,10.90
2024-02-11T08:20:22.733Z,8.20
2024-02-11T08:21:22.668Z,3.70
2024-02-11T08:22:22.614Z,12.00
2024-02-11T08:23:22.699Z,12.20
2024-02-11T08:24:22.615Z,11.70
2024-02-11T08:25:22.599Z,10.00
2024-02-11T08:26:22.640Z,4.90
2024-02-11T08:27:22.571Z,1.70
2024-02-11T08:28:22.548Z,1.30
2024-02-11T08:29:22.653Z,3.10
2024-02-11T08:30:25.156Z,2.10
2024-02-11T08:31:22.549Z,1.80
2024-02-11T08:32:22.621Z,1.50
2024-02-11T08:33:22.607Z,1.60
2024-02-11T08:34:22.554Z,1.60
2024-02-11T08:35:22.574Z,2.00
2024-02-11T08:36:22.464Z,1.90
2024-02-11T08:37:22.489Z,1.50
2024-02-11T08:38:22.504Z,1.30
2024-02-11T08:39:22.432Z,1.50
2024-02-11T08:40:22.419Z,2.00
2024-02-11T08:41:22.533Z,2.00
2024-02-11T08:42:22.399Z,1.90
2024-02-11T08:43:22.415Z,5.90
2024-02-11T08:44:22.487Z,8.50
2024-02-11T08:45:22.372Z,9.10
2024-02-11T08:46:22.355Z,5.90
2024-02-11T08:47:22.457Z,6.20
2024-02-11T08:48:22.403Z,3.90
2024-02-11T08:49:22.362Z,1.30
2024-02-11T08:50:22.483Z,1.40
2024-02-11T08:51:22.319Z,2.10
2024-02-11T08:52:22.288Z,2.30
2024-02-11T08:53:22.410Z,2.80
2024-02-11T08:54:22.267Z,1.60
2024-02-11T08:55:22.312Z,1.40
2024-02-11T08:56:22.295Z,1.20
2024-02-11T08:57:22.237Z,7.60
2024-02-11T08:58:22.228Z,5.30
2024-02-11T08:59:22.325Z,4.00
2024-02-11T09:00:22.219Z,2.90
2024-02-11T09:01:22.298Z,1.80
2024-02-11T09:02:22.288Z,2.70
2024-02-11T09:03:22.191Z,2.50
2024-02-11T09:04:22.187Z,7.60
2024-02-11T09:05:22.300Z,4.90
2024-02-11T09:06:22.339Z,5.90
2024-02-11T09:07:22.272Z,5.70
2024-02-11T09:08:22.161Z,1.40
2024-02-11T09:09:22.112Z,1.10
2024-02-11T09:10:22.100Z,1.40
2024-02-11T09:11:22.146Z,1.20
2024-02-11T09:12:22.075Z,0.80
2024-02-11T09:13:22.114Z,0.70
2024-02-11T09:14:22.087Z,1.10
2024-02-11T09:15:22.044Z,7.10
2024-02-11T09:16:22.029Z,7.80
2024-02-11T09:17:22.160Z,7.10
2024-02-11T09:18:22.100Z,8.20
2024-02-11T09:19:22.083Z,12.30
2024-02-11T09:20:22.088Z,8.10
2024-02-11T09:21:21.981Z,9.10
2024-02-11T09:22:22.014Z,7.20
2024-02-11T09:23:21.986Z,6.70
2024-02-11T09:24:21.955Z,8.90
2024-02-11T09:25:21.983Z,6.80
2024-02-11T09:26:22.047Z,8.80
2024-02-11T09:27:21.916Z,3.60
2024-02-11T09:28:21.905Z,5.20
2024-02-11T09:29:22.106Z,5.00
2024-02-11T09:30:21.901Z,2.50
2024-02-11T09:31:21.873Z,1.00
2024-02-11T09:32:21.976Z,1.10
2024-02-11T09:33:22.009Z,1.10
2024-02-11T09:34:21.929Z,6.60
2024-02-11T09:35:21.920Z,5.80
2024-02-11T09:36:21.844Z,7.00
2024-02-11T09:37:21.809Z,1.40
2024-02-11T09:38:21.936Z,1.60
2024-02-11T09:39:22.926Z,1.00
2024-02-11T09:40:21.772Z,1.00
2024-02-11T09:41:21.968Z,1.00
2024-02-11T09:42:21.799Z,0.90
2024-02-11T09:43:21.752Z,0.80
2024-02-11T09:44:23.003Z,1.00
2024-02-11T09:45:21.722Z,1.50
2024-02-11T09:46:21.710Z,1.40
2024-02-11T09:47:21.784Z,1.10
2024-02-11T09:48:21.805Z,1.10
2024-02-11T09:49:21.879Z,0.90
2024-02-11T09:50:21.743Z,0.90
2024-02-11T09:51:21.657Z,0.90
2024-02-11T09:52:21.667Z,0.90
2024-02-11T09:53:21.681Z,0.90
2024-02-11T09:54:21.657Z,1.50
2024-02-11T09:55:22.221Z,1.50
2024-02-11T09:56:21.687Z,1.20
2024-02-11T09:57:21.595Z,1.10
2024-02-11T09:58:22.392Z,1.20
2024-02-11T09:59:21.619Z,1.00
2024-02-11T10:00:21.882Z,0.90
2024-02-11T10:01:21.583Z,0.80
2024-02-11T10:02:21.736Z,0.70
2024-02-11T10:03:21.635Z,0.90
2024-02-11T10:04:21.539Z,0.80
2024-02-11T10:05:21.591Z,1.40
2024-02-11T10:06:21.551Z,1.40
2024-02-11T10:07:21.486Z,1.10
2024-02-11T10:08:21.551Z,0.80
2024-02-11T10:09:21.474Z,1.00
2024-02-11T10:10:21.485Z,1.10
2024-02-11T10:11:21.539Z,0.80
2024-02-11T10:12:21.471Z,0.90
2024-02-11T10:13:21.457Z,0.90
2024-02-11T10:14:21.488Z,7.70
2024-02-11T10:15:21.524Z,2.60
2024-02-11T10:16:21.389Z,5.30
2024-02-11T10:17:21.442Z,3.00
2024-02-11T10:18:21.602Z,0.90
2024-02-11T10:19:21.385Z,0.90
2024-02-11T10:20:21.404Z,1.00
2024-02-11T10:21:21.346Z,0.90
2024-02-11T10:22:27.922Z,1.00
2024-02-11T10:23:22.414Z,1.00
2024-02-11T10:24:21.336Z,0.80
2024-02-11T10:25:21.290Z,0.90
2024-02-11T10:26:21.636Z,0.90
2024-02-11T10:27:21.272Z,1.00
2024-02-11T10:28:21.261Z,1.10
2024-02-11T10:29:21.462Z,1.00
2024-02-11T10:30:21.274Z,23.90
2024-02-11T10:31:21.225Z,21.20
2024-02-11T10:32:21.342Z,4.30
2024-02-11T10:33:21.303Z,1.20
2024-02-11T10:34:21.235Z,1.60
2024-02-11T10:35:21.416Z,15.70
2024-02-11T10:36:21.233Z,28.30
2024-02-11T10:37:21.195Z,0.90
2024-02-11T10:38:21.172Z,1.00
2024-02-11T10:39:21.135Z,1.10
2024-02-11T10:40:21.292Z,1.00
2024-02-11T10:41:21.181Z,0.90
2024-02-11T10:42:21.147Z,0.90
2024-02-11T10:43:21.092Z,0.80
2024-02-11T10:44:21.174Z,0.90
2024-02-11T10:45:21.129Z,1.20
2024-02-11T10:46:21.073Z,1.20
2024-02-11T10:47:21.148Z,1.10
2024-02-11T10:48:21.204Z,0.90
2024-02-11T10:49:21.102Z,0.90
2024-02-11T10:50:21.055Z,1.00
2024-02-11T10:51:21.019Z,1.00
2024-02-11T10:52:21.000Z,1.10
2024-02-11T10:53:21.031Z,0.90
2024-02-11T10:54:21.005Z,1.00
2024-02-11T10:55:20.972Z,0.90
2024-02-11T10:56:21.094Z,1.00
2024-02-11T10:57:21.467Z,1.10
2024-02-11T10:58:20.993Z,1.00
2024-02-11T10:59:21.118Z,0.90
2024-02-11T11:00:20.952Z,0.80
2024-02-11T11:01:20.954Z,0.80
2024-02-11T11:02:20.937Z,1.00
2024-02-11T11:03:20.931Z,1.00
2024-02-11T11:04:20.876Z,0.70
2024-02-11T11:05:20.897Z,0.90
2024-02-11T11:06:20.902Z,0.80
2024-02-11T11:07:20.837Z,0.90
2024-02-11T11:08:20.847Z,1.20
2024-02-11T11:09:20.813Z,1.00
2024-02-11T11:10:20.811Z,2.00
2024-02-11T11:11:20.929Z,6.00
2024-02-11T11:12:20.812Z,3.40
2024-02-11T11:13:23.909Z,1.70
2024-02-11T11:14:21.090Z,2.00
2024-02-11T11:15:20.748Z,1.30
2024-02-11T11:16:20.748Z,1.10
2024-02-11T11:17:20.890Z,1.10
2024-02-11T11:18:20.856Z,1.10
2024-02-11T11:19:20.779Z,0.90
2024-02-11T11:20:20.796Z,0.90
2024-02-11T11:21:20.707Z,1.00
2024-02-11T11:22:20.676Z,0.90
2024-02-11T11:23:20.710Z,1.20
2024-02-11T11:24:20.677Z,1.10
2024-02-11T11:25:20.648Z,0.90
2024-02-11T11:26:20.716Z,1.90
2024-02-11T11:27:20.643Z,1.00
2024-02-11T11:28:20.630Z,0.90
2024-02-11T11:29:20.683Z,0.80
2024-02-11T11:30:20.644Z,0.90
2024-02-11T11:31:20.578Z,1.00
2024-02-11T11:32:20.620Z,0.90
2024-02-11T11:33:20.578Z,0.70
2024-02-11T11:34:20.580Z,0.90
2024-02-11T11:35:20.672Z,0.90
2024-02-11T11:36:20.558Z,1.20
2024-02-11T11:37:20.515Z,0.90
2024-02-11T11:38:20.594Z,0.80
2024-02-11T11:39:20.512Z,2.40
2024-02-11T11:40:20.484Z,1.40
2024-02-11T11:41:20.503Z,0.80
2024-02-11T11:42:20.491Z,0.90
2024-02-11T11:43:20.465Z,0.80
2024-02-11T11:44:20.506Z,0.80
2024-02-11T11:45:20.528Z,0.70
2024-02-11T11:46:20.446Z,1.00
2024-02-11T11:47:20.432Z,0.70
2024-02-11T11:48:20.516Z,0.80
2024-02-11T11:49:20.493Z,0.70
2024-02-11T11:50:20.414Z,0.70
2024-02-11T11:51:20.359Z,0.70
2024-02-11T11:52:20.352Z,0.90
2024-02-11T11:53:20.437Z,0.80
2024-02-11T11:54:20.373Z,0.80
2024-02-11T11:55:20.319Z,0.80
2024-02-11T11:56:20.429Z,0.80
2024-02-11T11:57:20.296Z,0.90
2024-02-11T11:58:20.294Z,1.00
2024-02-11T11:59:20.326Z,0.80
2024-02-11T12:00:20.307Z,0.70
2024-02-11T12:01:20.301Z,0.90
2024-02-11T12:02:20.337Z,3.40
2024-02-11T12:03:20.230Z,5.90
2024-02-11T12:04:20.320Z,2.50
2024-02-11T12:05:20.338Z,0.90
2024-02-11T12:06:20.260Z,0.80
2024-02-11T12:07:20.188Z,1.80
2024-02-11T12:08:20.472Z,1.00
2024-02-11T12:09:20.170Z,5.10
2024-02-11T12:10:20.157Z,5.20
2024-02-11T12:11:20.247Z,5.30
2024-02-11T12:12:20.157Z,2.10
2024-02-11T12:13:20.123Z,0.80
2024-02-11T12:14:20.262Z,0.80
2024-02-11T12:15:20.169Z,5.70
2024-02-11T12:16:20.106Z,3.70
2024-02-11T12:17:20.360Z,3.80
2024-02-11T12:18:20.317Z,66.80
2024-02-11T12:19:20.105Z,40.90
2024-02-11T12:20:20.119Z,35.70
2024-02-11T12:21:20.050Z,10.60
2024-02-11T12:22:20.026Z,0.80
2024-02-11T12:23:20.090Z,0.80
2024-02-11T12:24:20.044Z,0.80
2024-02-11T12:25:20.024Z,0.90
2024-02-11T12:26:20.030Z,1.50
2024-02-11T12:27:19.973Z,1.50
2024-02-11T12:28:19.984Z,1.00
2024-02-11T12:29:19.994Z,1.00
2024-02-11T12:30:19.972Z,1.00
2024-02-11T12:31:19.927Z,1.30
2024-02-11T12:32:19.957Z,0.70
2024-02-11T12:33:19.969Z,0.80
2024-02-11T12:34:20.143Z,0.70
2024-02-11T12:35:19.935Z,0.80
2024-02-11T12:36:19.916Z,0.70
2024-02-11T12:37:19.861Z,0.60
2024-02-11T12:38:19.917Z,0.90
2024-02-11T12:39:19.858Z,0.70
2024-02-11T12:40:19.830Z,0.80
2024-02-11T12:41:19.996Z,0.80
2024-02-11T12:42:19.829Z,2.00
2024-02-11T12:43:19.801Z,1.10
2024-02-11T12:44:19.883Z,0.80
2024-02-11T12:45:19.830Z,0.80
2024-02-11T12:46:19.769Z,0.80
2024-02-11T12:47:19.877Z,0.80
2024-02-11T12:48:19.853Z,0.70
2024-02-11T12:49:19.793Z,0.80
2024-02-11T12:50:19.833Z,0.90
2024-02-11T12:51:19.718Z,0.90
2024-02-11T12:52:19.725Z,0.90
2024-02-11T12:53:19.769Z,1.10
2024-02-11T12:54:19.772Z,1.80
2024-02-11T12:55:19.697Z,3.00
2024-02-11T12:56:20.303Z,1.90
2024-02-11T12:57:19.644Z,1.30
2024-02-11T12:58:19.654Z,1.00
2024-02-11T12:59:19.741Z,0.90
2024-02-11T13:00:19.637Z,0.80
2024-02-11T13:01:19.598Z,0.90
2024-02-11T13:02:19.761Z,0.70
2024-02-11T13:03:19.578Z,0.80
2024-02-11T13:04:19.602Z,1.00
2024-02-11T13:05:23.056Z,1.20
2024-02-11T13:06:20.607Z,1.10
2024-02-11T13:07:19.544Z,1.40
2024-02-11T13:08:19.634Z,1.40
2024-02-11T13:09:19.519Z,1.00
2024-02-11T13:10:19.522Z,1.50
2024-02-11T13:11:23.341Z,12.50
2024-02-11T13:12:19.520Z,5.50
2024-02-11T13:13:19.476Z,2.80
2024-02-11T13:14:19.464Z,1.60
2024-02-11T13:15:19.461Z,1.60
2024-02-11T13:16:19.455Z,1.00
2024-02-11T13:17:19.557Z,1.50